createdAt,value
2018-09-15T00:00:18.375Z,65.59
2018-09-15T00:00:44.513Z,65.78
2018-09-15T00:01:10.643Z,65.39
2018-09-15T00:01:36.780Z,65.78
2018-09-15T00:02:02.918Z,65.59
2018-09-15T00:02:29.049Z,66.06
2018-09-15T00:02:55.187Z,65.88
2018-09-15T00:03:21.316Z,65.65
2018-09-15T00:03:47.446Z,66.42
2018-09-15T00:04:13.575Z,66.32
2018-09-15T00:04:39.713Z,66.51
2018-09-15T00:05:05.845Z,66.51
2018-09-15T00:05:32.007Z,66.32
2018-09-15T00:05:58.140Z,66.51
2018-09-15T00:06:24.274Z,66.42
2018-09-15T00:06:50.404Z,66.61
2018-09-15T00:07:16.565Z,66.32
2018-09-15T00:07:42.693Z,66.35
2018-09-15T00:08:08.833Z,66.74
2018-09-15T00:08:34.991Z,66.26
2018-09-15T00:09:01.129Z,66.16
2018-09-15T00:09:27.254Z,66.06
2018-09-15T00:09:53.389Z,66.26
2018-09-15T00:10:19.516Z,66.55
2018-09-15T00:10:45.670Z,66.26
2018-09-15T00:11:11.808Z,66.45
2018-09-15T00:11:37.938Z,66.55
2018-09-15T00:12:04.085Z,66.35
2018-09-15T00:12:30.239Z,66.26
2018-09-15T00:12:56.371Z,66.45
2018-09-15T00:13:22.506Z,66.45
2018-09-15T00:13:48.648Z,66.06
2018-09-15T00:14:14.777Z,66.74
2018-09-15T00:14:40.908Z,66.45
2018-09-15T00:15:07.068Z,66.45
2018-09-15T00:15:33.204Z,66.26
2018-09-15T00:15:59.361Z,66.45
2018-09-15T00:16:25.495Z,66.06
2018-09-15T00:16:51.656Z,66.26
2018-09-15T00:17:17.818Z,66.74
2018-09-15T00:17:43.950Z,66.64
2018-09-15T00:18:10.084Z,66.26
2018-09-15T00:18:36.222Z,66.26
2018-09-15T00:19:02.379Z,66.26
2018-09-15T00:19:28.511Z,66.26
2018-09-15T00:19:54.670Z,66.32
2018-09-15T00:20:20.830Z,66.89
2018-09-15T00:20:46.959Z,66.89
2018-09-15T00:21:13.096Z,66.71
2018-09-15T00:21:39.227Z,67.12
2018-09-15T00:22:05.366Z,66.89
2018-09-15T00:22:31.542Z,66.99
2018-09-15T00:22:57.743Z,66.99
2018-09-15T00:23:23.825Z,66.89
2018-09-15T00:23:49.992Z,66.71
2018-09-15T00:24:16.142Z,67.09
2018-09-15T00:24:42.278Z,66.8
2018-09-15T00:25:08.409Z,66.71
2018-09-15T00:25:34.548Z,67.66
2018-09-15T00:26:00.676Z,67.66
2018-09-15T00:26:26.808Z,67.09
2018-09-15T00:26:52.944Z,66.8
2018-09-15T00:27:19.106Z,67.57
2018-09-15T00:27:45.253Z,67.57
2018-09-15T00:28:11.385Z,67.57
2018-09-15T00:28:37.528Z,67.57
2018-09-15T00:29:03.677Z,67.47
2018-09-15T00:29:29.834Z,67.47
2018-09-15T00:29:55.965Z,67.28
2018-09-15T00:30:22.106Z,67.28
2018-09-15T00:30:48.234Z,67.95
2018-09-15T00:31:14.364Z,67.95
2018-09-15T00:31:40.506Z,68.33
2018-09-15T00:32:06.634Z,67.76
2018-09-15T00:32:32.794Z,68.14
2018-09-15T00:32:58.927Z,67.95
2018-09-15T00:33:25.064Z,67.95
2018-09-15T00:33:51.225Z,68.24
2018-09-15T00:34:17.404Z,67.38
2018-09-15T00:34:43.531Z,67.85
2018-09-15T00:35:09.668Z,67.38
2018-09-15T00:35:35.793Z,67.47
2018-09-15T00:36:01.933Z,67.38
2018-09-15T00:36:28.065Z,68.43
2018-09-15T00:36:54.222Z,68.33
2018-09-15T00:37:20.378Z,68.33
2018-09-15T00:37:46.516Z,68.43
2018-09-15T00:38:12.648Z,68.62
2018-09-15T00:38:38.811Z,68.14
2018-09-15T00:39:05.023Z,68.14
2018-09-15T00:39:31.076Z,68.43
2018-09-15T00:39:57.214Z,68.14
2018-09-15T00:40:23.348Z,67.95
2018-09-15T00:40:49.480Z,67.95
2018-09-15T00:41:15.613Z,67.76
2018-09-15T00:41:41.781Z,67.38
2018-09-15T00:42:07.881Z,67.57
2018-09-15T00:42:34.016Z,67.66
2018-09-15T00:43:00.146Z,67.38
2018-09-15T00:43:26.278Z,67.38
2018-09-15T00:43:52.408Z,67.38
2018-09-15T00:44:18.553Z,67.57
2018-09-15T00:44:44.708Z,67.47
2018-09-15T00:45:10.834Z,67.66
2018-09-15T00:45:37.022Z,67.66
2018-09-15T00:46:03.156Z,67.38
2018-09-15T00:46:29.291Z,67.66
2018-09-15T00:46:55.421Z,67.47
2018-09-15T00:47:21.556Z,67.38
2018-09-15T00:47:47.714Z,67.47
2018-09-15T00:48:13.850Z,67.57
2018-09-15T00:48:39.982Z,67.66
2018-09-15T00:49:06.119Z,67.38
2018-09-15T00:49:32.271Z,67.47
2018-09-15T00:49:58.409Z,67.76
2018-09-15T00:50:24.538Z,68.05
2018-09-15T00:50:50.695Z,67.95
2018-09-15T00:51:16.846Z,67.95
2018-09-15T00:51:42.983Z,68.24
2018-09-15T00:52:09.112Z,68.05
2018-09-15T00:52:35.247Z,67.47
2018-09-15T00:53:01.381Z,67.47
2018-09-15T00:53:27.514Z,67.66
2018-09-15T00:53:53.642Z,67.38
2018-09-15T00:54:19.779Z,67.38
2018-09-15T00:54:45.907Z,67.57
2018-09-15T00:55:12.059Z,67.47
2018-09-15T00:55:38.195Z,67.38
2018-09-15T00:56:04.334Z,67.57
2018-09-15T00:56:30.481Z,67.38
2018-09-15T00:56:56.621Z,67.28
2018-09-15T00:57:22.748Z,67.28
2018-09-15T00:57:48.885Z,67.09
2018-09-15T00:58:15.017Z,67.28
2018-09-15T00:58:41.152Z,67.28
2018-09-15T00:59:07.312Z,67.57
2018-09-15T00:59:33.454Z,67.57
2018-09-15T00:59:59.574Z,67.57
2018-09-15T01:00:25.714Z,67.47
2018-09-15T01:00:51.851Z,67.85
2018-09-15T01:01:17.979Z,67.85
2018-09-15T01:01:44.112Z,67.69
2018-09-15T01:02:10.271Z,67.12
2018-09-15T01:02:36.401Z,67.32
2018-09-15T01:03:02.569Z,67.38
2018-09-15T01:03:28.704Z,67.57
2018-09-15T01:03:54.832Z,67.38
2018-09-15T01:04:21.006Z,67.47
2018-09-15T01:04:47.169Z,67.47
2018-09-15T01:05:13.296Z,67.47
2018-09-15T01:05:39.434Z,67.57
2018-09-15T01:06:05.557Z,67.85
2018-09-15T01:06:31.690Z,68.24
2018-09-15T01:06:57.828Z,67.85
2018-09-15T01:07:23.964Z,67.47
2018-09-15T01:07:50.090Z,67.85
2018-09-15T01:08:16.225Z,67.47
2018-09-15T01:08:42.356Z,67.28
2018-09-15T01:09:08.519Z,67.38
2018-09-15T01:09:34.649Z,67.38
2018-09-15T01:10:00.854Z,67.28
2018-09-15T01:10:26.985Z,67.28
2018-09-15T01:10:53.125Z,67.38
2018-09-15T01:11:19.279Z,67.47
2018-09-15T01:11:45.410Z,67.38
2018-09-15T01:12:11.548Z,67.57
2018-09-15T01:12:37.677Z,67.57
2018-09-15T01:13:03.810Z,67.28
2018-09-15T01:13:29.951Z,67.95
2018-09-15T01:13:56.138Z,68.33
2018-09-15T01:14:22.296Z,68.52
2018-09-15T01:14:48.388Z,68.43
2018-09-15T01:15:14.522Z,68.33
2018-09-15T01:15:40.660Z,68.14
2018-09-15T01:16:06.840Z,68.49
2018-09-15T01:16:32.970Z,68.87
2018-09-15T01:16:59.105Z,68.87
2018-09-15T01:17:25.237Z,68.87
2018-09-15T01:17:51.369Z,69.07
2018-09-15T01:18:17.510Z,68.87
2018-09-15T01:18:43.651Z,68.78
2018-09-15T01:19:09.801Z,68.59
2018-09-15T01:19:35.930Z,68.59
2018-09-15T01:20:02.111Z,69.01
2018-09-15T01:20:28.256Z,68.91
2018-09-15T01:20:54.388Z,68.91
2018-09-15T01:21:20.526Z,69.01
2018-09-15T01:21:46.656Z,68.81
2018-09-15T01:22:12.792Z,68.91
2018-09-15T01:22:38.927Z,68.87
2018-09-15T01:23:05.059Z,68.81
2018-09-15T01:23:31.220Z,68.78
2018-09-15T01:23:57.380Z,68.97
2018-09-15T01:24:23.512Z,68.97
2018-09-15T01:24:49.643Z,68.87
2018-09-15T01:25:15.810Z,68.78
2018-09-15T01:25:41.957Z,69.17
2018-09-15T01:26:08.231Z,69.35
2018-09-15T01:26:34.265Z,69.26
2018-09-15T01:27:00.400Z,69.26
2018-09-15T01:27:26.538Z,69.54
2018-09-15T01:27:52.666Z,69.35
2018-09-15T01:28:18.800Z,69.07
2018-09-15T01:28:44.934Z,68.87
2018-09-15T01:29:11.064Z,68.87
2018-09-15T01:29:37.200Z,69.35
2018-09-15T01:30:03.336Z,68.87
2018-09-15T01:30:29.490Z,68.78
2018-09-15T01:30:55.650Z,69.35
2018-09-15T01:31:21.781Z,69.45
2018-09-15T01:31:47.917Z,69.74
2018-09-15T01:32:14.046Z,69.35
2018-09-15T01:32:40.213Z,69.54
2018-09-15T01:33:06.341Z,70.03
2018-09-15T01:33:32.479Z,70.31
2018-09-15T01:33:58.617Z,70.03
2018-09-15T01:34:24.752Z,70.03
2018-09-15T01:34:50.879Z,69.93
2018-09-15T01:35:17.015Z,69.83
2018-09-15T01:35:43.147Z,69.74
2018-09-15T01:36:09.294Z,69.93
2018-09-15T01:36:35.431Z,70.03
2018-09-15T01:37:01.574Z,70.41
2018-09-15T01:37:27.697Z,70.03
2018-09-15T01:37:53.827Z,70.5
2018-09-15T01:38:19.967Z,70.47
2018-09-15T01:38:46.100Z,70.89
2018-09-15T01:39:12.220Z,70.89
2018-09-15T01:39:38.358Z,70.79
2018-09-15T01:40:04.493Z,70.66
2018-09-15T01:40:30.646Z,70.7
2018-09-15T01:40:56.776Z,70.41
2018-09-15T01:41:22.911Z,70.5
2018-09-15T01:41:49.052Z,70.98
2018-09-15T01:42:15.176Z,70.5
2018-09-15T01:42:41.343Z,70.89
2018-09-15T01:43:07.499Z,70.5
2018-09-15T01:43:33.628Z,70.5
2018-09-15T01:43:59.764Z,70.6
2018-09-15T01:44:25.896Z,70.66
2018-09-15T01:44:52.028Z,71.14
2018-09-15T01:45:18.158Z,70.95
2018-09-15T01:45:44.293Z,71.37
2018-09-15T01:46:10.460Z,70.85
2018-09-15T01:46:36.588Z,71.52
2018-09-15T01:47:02.716Z,71.62
2018-09-15T01:47:28.872Z,71.04
2018-09-15T01:47:55.003Z,70.95
2018-09-15T01:48:21.135Z,71.14
2018-09-15T01:48:47.262Z,71.52
2018-09-15T01:49:13.394Z,71.71
2018-09-15T01:49:39.530Z,71.14
2018-09-15T01:50:05.657Z,71.52
2018-09-15T01:50:31.810Z,71.42
2018-09-15T01:50:57.952Z,71.52
2018-09-15T01:51:24.083Z,71.91
2018-09-15T01:51:50.216Z,71.52
2018-09-15T01:52:16.355Z,72
2018-09-15T01:52:42.488Z,72.09
2018-09-15T01:53:08.612Z,72.29
2018-09-15T01:53:34.741Z,72.09
2018-09-15T01:54:00.876Z,72
2018-09-15T01:54:27.002Z,72
2018-09-15T01:54:53.141Z,72.29
2018-09-15T01:55:19.290Z,71.62
2018-09-15T01:55:45.520Z,72.67
2018-09-15T01:56:11.586Z,71.71
2018-09-15T01:56:37.713Z,72
2018-09-15T01:57:03.844Z,71.71
2018-09-15T01:57:30.057Z,72.09
2018-09-15T01:57:56.147Z,72.34
2018-09-15T01:58:22.281Z,72.29
2018-09-15T01:58:48.411Z,72.38
2018-09-15T01:59:14.542Z,72.16
2018-09-15T01:59:40.699Z,72.92
2018-09-15T02:00:06.835Z,72.63
2018-09-15T02:00:32.990Z,72.83
2018-09-15T02:00:59.119Z,72.54
2018-09-15T02:01:25.254Z,72.77
2018-09-15T02:01:51.381Z,72.63
2018-09-15T02:02:17.521Z,72.67
2018-09-15T02:02:43.650Z,72.29
2018-09-15T02:03:09.772Z,72.73
2018-09-15T02:03:35.911Z,72.92
2018-09-15T02:04:02.061Z,72.63
2018-09-15T02:04:28.217Z,73.4
2018-09-15T02:04:54.368Z,73.21
2018-09-15T02:05:20.534Z,73.3
2018-09-15T02:05:46.667Z,73.3
2018-09-15T02:06:12.795Z,73.3
2018-09-15T02:06:38.924Z,73.21
2018-09-15T02:07:05.081Z,72.92
2018-09-15T02:07:31.240Z,73.02
2018-09-15T02:07:57.381Z,73.4
2018-09-15T02:08:23.513Z,73.3
2018-09-15T02:08:49.647Z,73.21
2018-09-15T02:09:15.774Z,73.02
2018-09-15T02:09:41.911Z,73.5
2018-09-15T02:10:08.070Z,72.73
2018-09-15T02:10:34.198Z,73.21
2018-09-15T02:11:00.334Z,73.3
2018-09-15T02:11:26.509Z,73.4
2018-09-15T02:11:52.641Z,73.21
2018-09-15T02:12:18.776Z,73.02
2018-09-15T02:12:44.928Z,73.3
2018-09-15T02:13:11.055Z,73.02
2018-09-15T02:13:37.193Z,72.73
2018-09-15T02:14:03.330Z,73.5
2018-09-15T02:14:29.466Z,73.5
2018-09-15T02:14:55.592Z,74.26
2018-09-15T02:15:21.772Z,73.97
2018-09-15T02:15:47.904Z,74.16
2018-09-15T02:16:14.040Z,74.36
2018-09-15T02:16:40.177Z,73.5
2018-09-15T02:17:06.328Z,74.36
2018-09-15T02:17:32.466Z,74.36
2018-09-15T02:17:58.592Z,74.26
2018-09-15T02:18:24.749Z,74.16
2018-09-15T02:18:50.881Z,74.07
2018-09-15T02:19:17.017Z,73.97
2018-09-15T02:19:43.172Z,73.97
2018-09-15T02:20:09.311Z,73.88
2018-09-15T02:20:35.446Z,73.79
2018-09-15T02:21:01.601Z,73.69
2018-09-15T02:21:27.807Z,74.45
2018-09-15T02:21:53.964Z,74.36
2018-09-15T02:22:20.099Z,74.45
2018-09-15T02:22:46.366Z,74.45
2018-09-15T02:23:12.441Z,74.36
2018-09-15T02:23:38.567Z,74.45
2018-09-15T02:24:04.704Z,74.26
2018-09-15T02:24:30.835Z,74.36
2018-09-15T02:24:56.959Z,74.26
2018-09-15T02:25:23.099Z,74.45
2018-09-15T02:25:49.232Z,74.07
2018-09-15T02:26:15.357Z,74.74
2018-09-15T02:26:41.490Z,74.55
2018-09-15T02:27:07.647Z,75.31
2018-09-15T02:27:33.778Z,75.31
2018-09-15T02:27:59.914Z,74.55
2018-09-15T02:28:26.041Z,74.74
2018-09-15T02:28:52.223Z,74.84
2018-09-15T02:29:18.376Z,74.84
2018-09-15T02:29:44.529Z,75.22
2018-09-15T02:30:10.686Z,75.41
2018-09-15T02:30:36.819Z,74.93
2018-09-15T02:31:02.976Z,75.02
2018-09-15T02:31:29.106Z,75.02
2018-09-15T02:31:55.287Z,74.93
2018-09-15T02:32:21.414Z,74.55
2018-09-15T02:32:47.597Z,74.45
2018-09-15T02:33:13.718Z,74.74
2018-09-15T02:33:39.857Z,74.84
2018-09-15T02:34:05.981Z,74.84
2018-09-15T02:34:32.141Z,75.12
2018-09-15T02:34:58.274Z,74.84
2018-09-15T02:35:24.432Z,75.09
2018-09-15T02:35:50.564Z,74.9
2018-09-15T02:36:16.769Z,75.56
2018-09-15T02:36:42.923Z,74.9
2018-09-15T02:37:09.059Z,74.84
2018-09-15T02:37:35.191Z,75.12
2018-09-15T02:38:01.346Z,75.18
2018-09-15T02:38:27.479Z,75.02
2018-09-15T02:38:53.606Z,75.31
2018-09-15T02:39:19.766Z,75.47
2018-09-15T02:39:45.897Z,75.02
2018-09-15T02:40:12.026Z,74.9
2018-09-15T02:40:38.155Z,74.99
2018-09-15T02:41:04.290Z,75.56
2018-09-15T02:41:30.417Z,75.7
2018-09-15T02:41:56.553Z,75.89
2018-09-15T02:42:22.680Z,75.95
2018-09-15T02:42:48.813Z,76.23
2018-09-15T02:43:14.953Z,75.66
2018-09-15T02:43:41.100Z,75.76
2018-09-15T02:44:07.246Z,74.74
2018-09-15T02:44:33.389Z,75.12
2018-09-15T02:44:59.526Z,75.41
2018-09-15T02:45:25.651Z,75.02
2018-09-15T02:45:51.813Z,75.12
2018-09-15T02:46:17.969Z,74.84
2018-09-15T02:46:44.103Z,74.84
2018-09-15T02:47:10.257Z,74.99
2018-09-15T02:47:36.407Z,75.18
2018-09-15T02:48:02.531Z,75.22
2018-09-15T02:48:28.680Z,75.66
2018-09-15T02:48:54.829Z,76.08
2018-09-15T02:49:20.979Z,75.37
2018-09-15T02:49:47.113Z,75.85
2018-09-15T02:50:13.270Z,76.33
2018-09-15T02:50:39.406Z,76.33
2018-09-15T02:51:05.559Z,75.85
2018-09-15T02:51:31.735Z,76.23
2018-09-15T02:51:57.866Z,76.23
2018-09-15T02:52:24.015Z,75.85
2018-09-15T02:52:50.143Z,76.23
2018-09-15T02:53:16.296Z,76.33
2018-09-15T02:53:42.424Z,76.14
2018-09-15T02:54:08.606Z,76.23
2018-09-15T02:54:34.819Z,77
2018-09-15T02:55:00.885Z,76.71
2018-09-15T02:55:27.044Z,76.52
2018-09-15T02:55:53.232Z,76.42
2018-09-15T02:56:19.357Z,76.33
2018-09-15T02:56:45.489Z,76.52
2018-09-15T02:57:11.616Z,76.23
2018-09-15T02:57:37.756Z,76.23
2018-09-15T02:58:03.887Z,76.04
2018-09-15T02:58:30.039Z,76.52
2018-09-15T02:58:56.174Z,76.33
2018-09-15T02:59:22.304Z,76.9
2018-09-15T02:59:48.442Z,77.19
2018-09-15T03:00:14.571Z,76.9
2018-09-15T03:00:40.707Z,76.62
2018-09-15T03:01:06.882Z,76.42
2018-09-15T03:01:33.059Z,76.62
2018-09-15T03:01:59.211Z,77.28
2018-09-15T03:02:25.366Z,77.38
2018-09-15T03:02:51.515Z,77.28
2018-09-15T03:03:17.672Z,76.9
2018-09-15T03:03:43.837Z,76.81
2018-09-15T03:04:10.012Z,77.28
2018-09-15T03:04:36.167Z,77.48
2018-09-15T03:05:02.296Z,77.48
2018-09-15T03:05:28.450Z,77.28
2018-09-15T03:05:54.593Z,77.38
2018-09-15T03:06:20.721Z,77.48
2018-09-15T03:06:46.858Z,77.28
2018-09-15T03:07:12.987Z,77.95
2018-09-15T03:07:39.121Z,77.57
2018-09-15T03:08:05.270Z,77.53
2018-09-15T03:08:31.453Z,77.76
2018-09-15T03:08:57.576Z,77.44
2018-09-15T03:09:23.754Z,77.72
2018-09-15T03:09:49.893Z,77.82
2018-09-15T03:10:16.041Z,77.53
2018-09-15T03:10:42.234Z,77.57
2018-09-15T03:11:08.309Z,77.82
2018-09-15T03:11:34.462Z,77.82
2018-09-15T03:12:00.618Z,77.57
2018-09-15T03:12:26.798Z,78.3
2018-09-15T03:12:52.960Z,78.3
2018-09-15T03:13:19.090Z,78.11
2018-09-15T03:13:45.248Z,77.63
2018-09-15T03:14:11.375Z,77.67
2018-09-15T03:14:37.560Z,77.76
2018-09-15T03:15:03.690Z,77.72
2018-09-15T03:15:29.846Z,77.67
2018-09-15T03:15:55.981Z,77.86
2018-09-15T03:16:22.112Z,77.95
2018-09-15T03:16:48.264Z,77.76
2018-09-15T03:17:14.403Z,77.76
2018-09-15T03:17:40.531Z,77.67
2018-09-15T03:18:06.669Z,77.67
2018-09-15T03:18:32.798Z,78.11
2018-09-15T03:18:58.958Z,78.11
2018-09-15T03:19:25.139Z,77.92
2018-09-15T03:19:51.267Z,77.92
2018-09-15T03:20:17.432Z,78.01
2018-09-15T03:20:43.595Z,78.2
2018-09-15T03:21:09.733Z,78.53
2018-09-15T03:21:35.917Z,77.57
2018-09-15T03:22:02.065Z,77.53
2018-09-15T03:22:28.223Z,78.3
2018-09-15T03:22:54.352Z,78.24
2018-09-15T03:23:20.486Z,78.2
2018-09-15T03:23:46.615Z,78.11
2018-09-15T03:24:12.776Z,78.01
2018-09-15T03:24:38.942Z,78.11
2018-09-15T03:25:05.069Z,78.01
2018-09-15T03:25:31.208Z,78.01
2018-09-15T03:25:57.366Z,78.2
2018-09-15T03:26:23.494Z,78.49
2018-09-15T03:26:49.635Z,78.39
2018-09-15T03:27:15.777Z,78.53
2018-09-15T03:27:41.919Z,78.39
2018-09-15T03:28:08.053Z,78.34
2018-09-15T03:28:34.181Z,78.49
2018-09-15T03:29:00.318Z,78.49
2018-09-15T03:29:26.454Z,78.68
2018-09-15T03:29:52.608Z,78.87
2018-09-15T03:30:18.788Z,78.68
2018-09-15T03:30:45.045Z,78.58
2018-09-15T03:31:11.154Z,78.78
2018-09-15T03:31:37.325Z,78.58
2018-09-15T03:32:03.509Z,78.78
2018-09-15T03:32:29.708Z,78.58
2018-09-15T03:32:55.848Z,78.78
2018-09-15T03:33:21.971Z,78.68
2018-09-15T03:33:48.122Z,78.39
2018-09-15T03:34:14.279Z,78.68
2018-09-15T03:34:40.410Z,78.68
2018-09-15T03:35:06.548Z,78.78
2018-09-15T03:35:32.678Z,78.87
2018-09-15T03:35:58.838Z,78.68
2018-09-15T03:36:25.014Z,78.68
2018-09-15T03:36:51.102Z,78.49
2018-09-15T03:37:17.227Z,79.06
2018-09-15T03:37:43.383Z,78.78
2018-09-15T03:38:09.520Z,78.97
2018-09-15T03:38:35.650Z,78.34
2018-09-15T03:39:01.788Z,78.49
2018-09-15T03:39:27.963Z,78.68
2018-09-15T03:39:54.176Z,78.39
2018-09-15T03:40:20.307Z,78.49
2018-09-15T03:40:46.439Z,78.49
2018-09-15T03:41:12.562Z,78.49
2018-09-15T03:41:38.912Z,78.68
2018-09-15T03:42:04.892Z,78.3
2018-09-15T03:42:31.031Z,78.49
2018-09-15T03:42:57.181Z,78.78
2018-09-15T03:43:23.314Z,78.87
2018-09-15T03:43:49.447Z,79.16
2018-09-15T03:44:15.599Z,78.97
2018-09-15T03:44:41.733Z,78.58
2018-09-15T03:45:07.871Z,78.58
2018-09-15T03:45:34.005Z,78.78
2018-09-15T03:46:00.134Z,78.78
2018-09-15T03:46:26.295Z,78.68
2018-09-15T03:46:52.430Z,79.16
2018-09-15T03:47:18.560Z,79.54
2018-09-15T03:47:44.710Z,79.44
2018-09-15T03:48:10.873Z,79.44
2018-09-15T03:48:37.044Z,79.64
2018-09-15T03:49:03.184Z,79.83
2018-09-15T03:49:29.341Z,79.73
2018-09-15T03:49:55.507Z,79.54
2018-09-15T03:50:21.641Z,79.73
2018-09-15T03:50:47.773Z,79.54
2018-09-15T03:51:13.896Z,79.73
2018-09-15T03:51:40.061Z,79.73
2018-09-15T03:52:06.191Z,80.11
2018-09-15T03:52:32.325Z,79.83
2018-09-15T03:52:58.482Z,80.3
2018-09-15T03:53:24.612Z,79.93
2018-09-15T03:53:50.774Z,80.3
2018-09-15T03:54:16.894Z,80.21
2018-09-15T03:54:43.025Z,79.83
2018-09-15T03:55:09.203Z,80.3
2018-09-15T03:55:35.339Z,80.11
2018-09-15T03:56:01.472Z,80.21
2018-09-15T03:56:27.651Z,80.3
2018-09-15T03:56:53.805Z,80.21
2018-09-15T03:57:19.954Z,79.54
2018-09-15T03:57:46.118Z,79.93
2018-09-15T03:58:12.250Z,80.4
2018-09-15T03:58:38.448Z,80.3
2018-09-15T03:59:04.603Z,80.02
2018-09-15T03:59:30.739Z,80.3
2018-09-15T03:59:56.982Z,80.02
2018-09-15T04:00:23.011Z,80.3
2018-09-15T04:00:49.152Z,79.83
2018-09-15T04:01:15.301Z,79.83
2018-09-15T04:01:41.465Z,79.83
2018-09-15T04:02:07.611Z,79.35
2018-09-15T04:02:33.751Z,79.73
2018-09-15T04:02:59.901Z,79.73
2018-09-15T04:03:26.033Z,79.54
2018-09-15T04:03:52.190Z,79.25
2018-09-15T04:04:18.347Z,79.64
2018-09-15T04:04:44.474Z,79.73
2018-09-15T04:05:10.639Z,79.64
2018-09-15T04:05:36.816Z,79.54
2018-09-15T04:06:02.958Z,79.83
2018-09-15T04:06:29.108Z,79.35
2018-09-15T04:06:55.239Z,79.54
2018-09-15T04:07:21.393Z,79.35
2018-09-15T04:07:47.531Z,79.16
2018-09-15T04:08:13.695Z,79.44
2018-09-15T04:08:39.857Z,79.54
2018-09-15T04:09:06.010Z,78.78
2018-09-15T04:09:32.140Z,78.97
2018-09-15T04:09:58.276Z,79.16
2018-09-15T04:10:24.428Z,79.2
2018-09-15T04:10:50.560Z,78.68
2018-09-15T04:11:16.693Z,78.87
2018-09-15T04:11:42.818Z,78.87
2018-09-15T04:12:08.948Z,78.78
2018-09-15T04:12:35.129Z,78.87
2018-09-15T04:13:01.284Z,79.54
2018-09-15T04:13:27.446Z,79.35
2018-09-15T04:13:53.609Z,79.54
2018-09-15T04:14:19.736Z,79.35
2018-09-15T04:14:45.874Z,79.16
2018-09-15T04:15:12.005Z,79.83
2018-09-15T04:15:38.160Z,80.02
2018-09-15T04:16:04.315Z,80.21
2018-09-15T04:16:30.454Z,80.5
2018-09-15T04:16:56.604Z,80.59
2018-09-15T04:17:22.753Z,80.5
2018-09-15T04:17:48.892Z,80.79
2018-09-15T04:18:15.035Z,80.69
2018-09-15T04:18:41.178Z,80.79
2018-09-15T04:19:07.310Z,80.59
2018-09-15T04:19:33.466Z,80.88
2018-09-15T04:19:59.626Z,80.59
2018-09-15T04:20:25.778Z,80.74
2018-09-15T04:20:51.934Z,80.69
2018-09-15T04:21:18.085Z,80.59
2018-09-15T04:21:44.240Z,80.65
2018-09-15T04:22:10.375Z,81.16
2018-09-15T04:22:36.559Z,80.93
2018-09-15T04:23:02.713Z,81.03
2018-09-15T04:23:28.883Z,81.16
2018-09-15T04:23:55.010Z,81.03
2018-09-15T04:24:21.173Z,81.16
2018-09-15T04:24:47.322Z,81.03
2018-09-15T04:25:13.477Z,81.03
2018-09-15T04:25:39.627Z,81.51
2018-09-15T04:26:05.789Z,81.13
2018-09-15T04:26:31.943Z,81.89
2018-09-15T04:26:58.121Z,81.7
2018-09-15T04:27:24.254Z,81.51
2018-09-15T04:27:50.385Z,81.32
2018-09-15T04:28:16.575Z,81.7
2018-09-15T04:28:42.787Z,81.6
2018-09-15T04:29:08.913Z,81.79
2018-09-15T04:29:35.049Z,81.89
2018-09-15T04:30:01.184Z,81.51
2018-09-15T04:30:27.337Z,81.13
2018-09-15T04:30:53.473Z,81.6
2018-09-15T04:31:19.609Z,81.89
2018-09-15T04:31:45.746Z,81.51
2018-09-15T04:32:11.872Z,81.51
2018-09-15T04:32:38.010Z,81.6
2018-09-15T04:33:04.166Z,81.79
2018-09-15T04:33:30.291Z,81.89
2018-09-15T04:33:56.455Z,82.18
2018-09-15T04:34:22.588Z,81.79
2018-09-15T04:34:48.752Z,81.7
2018-09-15T04:35:14.884Z,81.7
2018-09-15T04:35:41.035Z,81.74
2018-09-15T04:36:07.199Z,81.6
2018-09-15T04:36:33.346Z,81.74
2018-09-15T04:36:59.490Z,81.55
2018-09-15T04:37:25.623Z,81.89
2018-09-15T04:37:51.758Z,81.89
2018-09-15T04:38:17.894Z,82.18
2018-09-15T04:38:44.024Z,81.89
2018-09-15T04:39:10.152Z,81.89
2018-09-15T04:39:36.312Z,81.6
2018-09-15T04:40:02.460Z,81.32
2018-09-15T04:40:28.587Z,81.6
2018-09-15T04:40:54.722Z,82.12
2018-09-15T04:41:20.855Z,81.93
2018-09-15T04:41:47.103Z,82.12
2018-09-15T04:42:13.206Z,82.22
2018-09-15T04:42:39.340Z,81.93
2018-09-15T04:43:05.503Z,81.65
2018-09-15T04:43:31.673Z,81.99
2018-09-15T04:43:57.825Z,82.08
2018-09-15T04:44:23.958Z,82.08
2018-09-15T04:44:50.133Z,81.93
2018-09-15T04:45:16.268Z,81.79
2018-09-15T04:45:42.395Z,81.93
2018-09-15T04:46:08.527Z,81.89
2018-09-15T04:46:34.676Z,81.89
2018-09-15T04:47:00.818Z,82.28
2018-09-15T04:47:26.965Z,82.41
2018-09-15T04:47:53.122Z,82.12
2018-09-15T04:48:19.299Z,82.28
2018-09-15T04:48:45.452Z,81.89
2018-09-15T04:49:11.593Z,81.93
2018-09-15T04:49:37.752Z,81.89
2018-09-15T04:50:03.889Z,82.51
2018-09-15T04:50:30.041Z,82.28
2018-09-15T04:50:56.174Z,82.28
2018-09-15T04:51:22.308Z,82.28
2018-09-15T04:51:48.444Z,81.93
2018-09-15T04:52:14.577Z,82.51
2018-09-15T04:52:40.848Z,82.22
2018-09-15T04:53:06.885Z,82.22
2018-09-15T04:53:33.039Z,82.51
2018-09-15T04:53:59.171Z,82.31
2018-09-15T04:54:25.293Z,82.12
2018-09-15T04:54:51.427Z,82.56
2018-09-15T04:55:17.558Z,82.94
2018-09-15T04:55:43.693Z,82.84
2018-09-15T04:56:09.861Z,82.56
2018-09-15T04:56:35.988Z,83.13
2018-09-15T04:57:02.198Z,83.13
2018-09-15T04:57:28.357Z,82.65
2018-09-15T04:57:54.490Z,82.84
2018-09-15T04:58:20.648Z,82.65
2018-09-15T04:58:46.832Z,82.65
2018-09-15T04:59:12.962Z,82.56
2018-09-15T04:59:39.101Z,82.75
2018-09-15T05:00:05.228Z,82.75
2018-09-15T05:00:31.369Z,82.94
2018-09-15T05:00:57.516Z,82.84
2018-09-15T05:01:23.643Z,83.04
2018-09-15T05:01:49.771Z,83.04
2018-09-15T05:02:15.939Z,83.33
2018-09-15T05:02:42.071Z,83.23
2018-09-15T05:03:08.208Z,83.13
2018-09-15T05:03:34.340Z,83.27
2018-09-15T05:04:00.470Z,82.98
2018-09-15T05:04:26.607Z,82.98
2018-09-15T05:04:52.757Z,82.98
2018-09-15T05:05:18.897Z,82.79
2018-09-15T05:05:45.028Z,83.23
2018-09-15T05:06:11.179Z,83.51
2018-09-15T05:06:37.419Z,83.42
2018-09-15T05:07:03.449Z,83.46
2018-09-15T05:07:29.581Z,83.42
2018-09-15T05:07:55.718Z,82.89
2018-09-15T05:08:21.845Z,83.17
2018-09-15T05:08:47.974Z,82.98
2018-09-15T05:09:14.126Z,82.89
2018-09-15T05:09:40.259Z,82.89
2018-09-15T05:10:06.391Z,82.79
2018-09-15T05:10:32.522Z,82.6
2018-09-15T05:10:58.681Z,82.98
2018-09-15T05:11:24.809Z,83.17
2018-09-15T05:11:50.946Z,83.13
2018-09-15T05:12:17.135Z,83.27
2018-09-15T05:12:43.371Z,83.37
2018-09-15T05:13:09.432Z,83.27
2018-09-15T05:13:35.572Z,83.51
2018-09-15T05:14:01.701Z,83.61
2018-09-15T05:14:27.829Z,83.51
2018-09-15T05:14:53.965Z,84.28
2018-09-15T05:15:20.129Z,84.28
2018-09-15T05:15:46.265Z,83.9
2018-09-15T05:16:12.421Z,84.19
2018-09-15T05:16:38.551Z,84.38
2018-09-15T05:17:04.675Z,83.99
2018-09-15T05:17:30.803Z,83.99
2018-09-15T05:17:56.937Z,83.99
2018-09-15T05:18:23.093Z,84.13
2018-09-15T05:18:49.224Z,84.28
2018-09-15T05:19:15.378Z,83.65
2018-09-15T05:19:41.511Z,83.51
2018-09-15T05:20:07.635Z,84.19
2018-09-15T05:20:33.765Z,83.9
2018-09-15T05:20:59.901Z,83.7
2018-09-15T05:21:26.036Z,83.9
2018-09-15T05:21:52.168Z,84.03
2018-09-15T05:22:18.297Z,83.9
2018-09-15T05:22:44.460Z,83.99
2018-09-15T05:23:10.616Z,84.13
2018-09-15T05:23:36.754Z,84.09
2018-09-15T05:24:02.883Z,84.13
2018-09-15T05:24:29.016Z,83.99
2018-09-15T05:24:55.143Z,84.47
2018-09-15T05:25:21.281Z,84.09
2018-09-15T05:25:47.408Z,84.28
2018-09-15T05:26:13.567Z,84.32
2018-09-15T05:26:39.693Z,84.32
2018-09-15T05:27:05.824Z,84.03
2018-09-15T05:27:31.962Z,84.56
2018-09-15T05:27:58.121Z,84.38
2018-09-15T05:28:24.249Z,84.19
2018-09-15T05:28:50.388Z,84.03
2018-09-15T05:29:16.537Z,84.13
2018-09-15T05:29:42.699Z,83.7
2018-09-15T05:30:08.850Z,84.56
2018-09-15T05:30:34.985Z,84.23
2018-09-15T05:31:01.119Z,84.28
2018-09-15T05:31:27.274Z,84.19
2018-09-15T05:31:53.403Z,84.32
2018-09-15T05:32:19.538Z,84.03
2018-09-15T05:32:45.699Z,84.32
2018-09-15T05:33:11.842Z,84.09
2018-09-15T05:33:37.979Z,84.47
2018-09-15T05:34:04.113Z,84.28
2018-09-15T05:34:30.243Z,84.66
2018-09-15T05:34:56.374Z,85.14
2018-09-15T05:35:22.537Z,85.14
2018-09-15T05:35:48.668Z,85.14
2018-09-15T05:36:14.801Z,84.95
2018-09-15T05:36:40.939Z,84.95
2018-09-15T05:37:07.086Z,84.85
2018-09-15T05:37:33.219Z,84.85
2018-09-15T05:37:59.398Z,84.85